Time;durP1;ratioP1;P1;durP2;ratioP2;P2;SDS_P1;SDS_P2;PMS_P1;PMS_P2;Temp;Humidity;BMP_temperature;BMP_pressure;BME280_temperature;BME280_humidity;BME280_pressure;Samples;Min_cycle;Max_cycle;Signal;HPM_P1;HPM_P2
2023/02/19 00:00:57;;;;;;;1.60;1.50;;;12.20;99.90;;;;;;5013496;28;20811;-74
2023/02/19 00:03:23;;;;;;;1.70;1.60;;;11.60;99.90;;;;;;5015759;28;20393;-74
2023/02/19 00:05:48;;;;;;;2.20;1.70;;;12.00;99.90;;;;;;5012054;28;20388;-74
2023/02/19 00:08:14;;;;;;;2.43;1.30;;;12.10;99.90;;;;;;4995062;28;20418;-74
2023/02/19 00:10:39;;;;;;;1.60;1.50;;;12.30;99.90;;;;;;5002551;28;20468;-74
2023/02/19 00:13:05;;;;;;;2.10;1.60;;;11.60;99.90;;;;;;5015263;28;20495;-74
2023/02/19 00:15:31;;;;;;;1.60;1.50;;;11.80;99.90;;;;;;5014938;28;20497;-75
2023/02/19 00:17:57;;;;;;;1.52;1.40;;;11.70;99.90;;;;;;5015077;28;20388;-74
2023/02/19 00:20:23;;;;;;;2.10;1.50;;;12.00;99.90;;;;;;5014195;28;20415;-75
2023/02/19 00:22:49;;;;;;;1.48;1.38;;;11.70;99.90;;;;;;5013158;28;20495;-75
2023/02/19 00:25:15;;;;;;;2.40;1.70;;;;;;;;;;5013557;28;20441;-75
2023/02/19 00:27:40;;;;;;;2.28;1.55;;;11.70;99.90;;;;;;5013592;28;20866;-74
2023/02/19 00:30:06;;;;;;;1.70;1.40;;;11.80;99.90;;;;;;5013268;28;20744;-75
2023/02/19 00:32:31;;;;;;;1.60;1.50;;;11.40;99.90;;;;;;5013999;28;20404;-74
2023/02/19 00:34:57;;;;;;;1.20;1.10;;;;;;;;;;5012438;28;20467;-74
2023/02/19 00:37:23;;;;;;;1.60;1.50;;;;;;;;;;5013373;28;20834;-74
2023/02/19 00:39:49;;;;;;;2.45;1.55;;;;;;;;;;5013062;28;20459;-76
2023/02/19 00:42:15;;;;;;;1.60;1.30;;;11.50;99.90;;;;;;5012026;28;20414;-74
2023/02/19 00:44:40;;;;;;;3.20;1.50;;;11.40;99.90;;;;;;5013232;28;20389;-74
2023/02/19 00:47:06;;;;;;;3.57;1.90;;;11.30;99.90;;;;;;5013559;28;20536;-74
2023/02/19 00:49:32;;;;;;;2.70;1.50;;;;;;;;;;5013747;28;20932;-74
2023/02/19 00:51:57;;;;;;;1.70;1.60;;;11.50;99.90;;;;;;5014016;28;20446;-74
2023/02/19 00:54:23;;;;;;;1.60;1.50;;;11.70;99.90;;;;;;5013442;28;20400;-73
2023/02/19 00:56:49;;;;;;;1.75;1.60;;;11.80;99.90;;;;;;5013252;28;20404;-74
2023/02/19 00:59:15;;;;;;;1.83;1.70;;;11.50;99.90;;;;;;5013401;28;20521;-75
2023/02/19 01:01:43;;;;;;;1.52;1.42;;;11.30;99.90;;;;;;5012875;28;22359;-74
2023/02/19 01:04:09;;;;;;;1.50;1.40;;;11.60;99.90;;;;;;5013546;28;20802;-74
2023/02/19 01:06:35;;;;;;;1.45;1.35;;;11.30;99.90;;;;;;5008174;28;20424;-74
2023/02/19 01:09:01;;;;;;;2.00;1.80;;;11.50;99.90;;;;;;5012856;28;20385;-74
2023/02/19 01:11:26;;;;;;;1.30;1.20;;;11.70;99.90;;;;;;5012441;28;20400;-74
2023/02/19 01:13:55;;;;;;;1.90;1.40;;;11.80;99.90;;;;;;5012169;28;20739;-75
2023/02/19 01:16:23;;;;;;;1.50;1.40;;;11.60;99.90;;;;;;5010922;28;20411;-74
2023/02/19 01:18:50;;;;;;;1.60;1.42;;;11.30;99.90;;;;;;4993517;28;20486;-74
2023/02/19 01:21:18;;;;;;;2.00;1.80;;;11.80;99.90;;;;;;4992896;28;20406;-75
2023/02/19 01:23:43;;;;;;;1.50;1.40;;;11.70;99.90;;;;;;5007751;28;20483;-74
2023/02/19 01:26:13;;;;;;;1.27;1.17;;;11.20;99.90;;;;;;5012636;28;20433;-74
2023/02/19 01:28:39;;;;;;;1.23;1.13;;;12.50;99.90;;;;;;5011775;28;20385;-74
2023/02/19 01:31:06;;;;;;;1.23;1.10;;;;;;;;;;5011205;28;20915;-73
2023/02/19 01:33:32;;;;;;;1.60;1.50;;;;;;;;;;5013398;28;20523;-75
2023/02/19 01:35:58;;;;;;;1.52;1.40;;;11.70;99.90;;;;;;5027617;28;20392;-73
2023/02/19 01:38:24;;;;;;;1.40;1.30;;;11.60;99.90;;;;;;5011321;28;20898;-75
2023/02/19 01:40:57;;;;;;;1.40;1.30;;;11.40;99.90;;;;;;5011100;28;20404;-73
2023/02/19 01:43:23;;;;;;;2.35;1.40;;;;;;;;;;5012831;28;20397;-74
2023/02/19 01:45:49;;;;;;;2.30;1.40;;;11.30;99.90;;;;;;5011413;28;20377;-74
2023/02/19 01:48:21;;;;;;;1.57;1.47;;;11.60;99.90;;;;;;5012955;28;20393;-74
2023/02/19 01:51:09;;;;;;;1.52;1.33;;;11.20;99.90;;;;;;5013149;28;20464;-74
2023/02/19 01:53:42;;;;;;;1.40;1.30;;;11.50;99.90;;;;;;5012385;28;20408;-74
2023/02/19 01:56:08;;;;;;;1.58;1.40;;;11.40;99.90;;;;;;5012928;28;20385;-73
2023/02/19 01:58:36;;;;;;;1.47;1.37;;;11.30;99.90;;;;;;5012527;28;20447;-73
2023/02/19 02:01:04;;;;;;;1.40;1.00;;;11.70;99.90;;;;;;5012635;28;20483;-74
2023/02/19 02:03:31;;;;;;;1.45;1.35;;;11.70;99.90;;;;;;5010519;28;20466;-74
2023/02/19 02:05:58;;;;;;;1.70;1.60;;;11.60;99.90;;;;;;5008629;28;20383;-75
2023/02/19 02:11:09;;;;;;;1.60;1.50;;;;;;;;;;4994575;28;20381;-74
2023/02/19 02:13:37;;;;;;;1.50;1.40;;;11.30;99.90;;;;;;5027397;28;20391;-74
2023/02/19 02:16:31;;;;;;;1.42;1.33;;;11.60;99.90;;;;;;5011916;28;20396;-74
2023/02/19 02:19:15;;;;;;;1.60;1.50;;;11.40;99.90;;;;;;5012208;28;20392;-74
2023/02/19 02:21:52;;;;;;;1.90;1.33;;;11.30;99.90;;;;;;5027110;28;20439;-74
2023/02/19 02:24:42;;;;;;;1.73;1.63;;;11.50;99.90;;;;;;5011982;28;20391;-74
2023/02/19 02:27:29;;;;;;;2.30;1.70;;;11.20;99.90;;;;;;5012613;28;20759;-74
2023/02/19 02:30:28;;;;;;;1.70;1.60;;;10.80;99.90;;;;;;5010935;28;20393;-75
2023/02/19 02:33:15;;;;;;;1.67;1.57;;;11.10;99.90;;;;;;4996477;28;20484;-74
2023/02/19 02:35:56;;;;;;;2.10;1.70;;;10.90;99.90;;;;;;5012144;28;20775;-74
2023/02/19 02:38:27;;;;;;;1.52;1.42;;;11.30;99.90;;;;;;5012620;28;20431;-74
2023/02/19 02:40:54;;;;;;;2.28;1.55;;;10.60;99.90;;;;;;5011631;28;20401;-74
2023/02/19 02:43:19;;;;;;;2.10;1.70;;;10.60;99.90;;;;;;5013644;28;20502;-75
2023/02/19 02:45:45;;;;;;;1.50;1.40;;;11.20;99.90;;;;;;5011912;28;20388;-75
2023/02/19 02:48:35;;;;;;;1.40;1.30;;;10.80;99.90;;;;;;5013397;28;20681;-74
2023/02/19 02:51:22;;;;;;;1.80;1.33;;;10.90;99.90;;;;;;5016479;28;20455;-74
2023/02/19 02:56:48;;;;;;;1.90;1.80;;;10.80;99.90;;;;;;5015415;28;20427;-74
2023/02/19 02:59:18;;;;;;;1.87;1.77;;;10.90;99.90;;;;;;5015567;28;20396;-75
2023/02/19 03:02:11;;;;;;;1.70;1.60;;;10.70;99.90;;;;;;5016527;28;20403;-74
2023/02/19 03:05:50;;;;;;;1.77;1.67;;;11.10;99.90;;;;;;5015733;28;20384;-75
2023/02/19 03:07:35;;;;;;;1.80;1.38;;;10.70;99.90;;;;;;5015003;28;20381;-74
2023/02/19 03:10:03;;;;;;;1.80;1.50;;;10.80;99.90;;;;;;5015858;28;20393;-74
2023/02/19 03:20:55;;;;;;;2.17;1.98;;;10.40;99.90;;;;;;4995780;28;20410;-74
2023/02/19 03:26:02;;;;;;;1.92;1.40;;;10.40;99.90;;;;;;4994652;28;20402;-75
2023/02/19 03:26:12;;;;;;;1.90;1.80;;;10.60;99.90;;;;;;5013819;28;20455;-74
2023/02/19 03:31:47;;;;;;;1.60;1.50;;;10.50;99.90;;;;;;4993477;28;20401;-74
2023/02/19 03:34:20;;;;;;;1.63;1.52;;;10.70;99.90;;;;;;4999694;28;20408;-74
2023/02/19 03:36:53;;;;;;;1.60;1.50;;;11.00;99.90;;;;;;4996212;28;20435;-74
2023/02/19 03:39:21;;;;;;;1.90;1.40;;;11.10;99.90;;;;;;5015149;28;20389;-74
2023/02/19 03:41:58;;;;;;;1.85;1.50;;;11.20;99.90;;;;;;5013350;28;20439;-74
2023/02/19 03:44:43;;;;;;;1.60;1.50;;;11.30;99.90;;;;;;5013675;28;20790;-74
2023/02/19 03:47:22;;;;;;;1.45;1.35;;;11.30;99.90;;;;;;5014034;28;20401;-74
2023/02/19 03:50:14;;;;;;;1.60;1.50;;;10.70;99.90;;;;;;5013443;28;20407;-75
2023/02/19 03:52:51;;;;;;;1.70;1.60;;;10.70;99.90;;;;;;5013344;28;20409;-74
2023/02/19 03:55:31;;;;;;;1.75;1.65;;;11.00;99.90;;;;;;5014764;28;20483;-74
2023/02/19 03:58:13;;;;;;;1.80;1.70;;;10.90;99.90;;;;;;5014494;28;20950;-73
2023/02/19 04:00:53;;;;;;;1.60;1.50;;;11.10;99.90;;;;;;5014879;28;20448;-75
2023/02/19 04:03:19;;;;;;;1.65;1.55;;;;;;;;;;5014693;28;20416;-75
2023/02/19 04:05:55;;;;;;;1.60;1.50;;;10.60;99.90;;;;;;5014719;28;20385;-74
2023/02/19 04:08:22;;;;;;;1.60;1.50;;;11.20;99.90;;;;;;5013254;28;20487;-74
2023/02/19 04:10:50;;;;;;;2.00;1.80;;;11.20;99.90;;;;;;5013635;28;20407;-75
2023/02/19 04:13:23;;;;;;;1.65;1.55;;;10.90;99.90;;;;;;5011586;28;20393;-74
2023/02/19 04:15:52;;;;;;;1.45;1.35;;;10.80;99.90;;;;;;4993915;28;20409;-75
2023/02/19 04:18:25;;;;;;;1.58;1.48;;;11.00;99.90;;;;;;4994984;28;20893;-75
2023/02/19 04:20:51;;;;;;;2.10;1.40;;;10.90;99.90;;;;;;4994303;28;20425;-74
2023/02/19 04:23:21;;;;;;;1.60;1.50;;;10.80;99.90;;;;;;5009120;28;20507;-75
2023/02/19 04:25:52;;;;;;;1.30;1.20;;;10.80;99.90;;;;;;5014725;28;20500;-75
2023/02/19 04:28:18;;;;;;;1.70;1.60;;;10.70;99.90;;;;;;5014633;28;20408;-75
2023/02/19 04:30:44;;;;;;;1.97;1.53;;;11.10;99.90;;;;;;5016115;28;20389;-75
2023/02/19 04:33:09;;;;;;;1.70;1.60;;;10.60;99.90;;;;;;5015694;28;20397;-75
2023/02/19 04:35:35;;;;;;;1.70;1.58;;;10.60;99.90;;;;;;5014883;28;20411;-75
2023/02/19 04:38:01;;;;;;;1.50;1.40;;;;;;;;;;5015184;28;20472;-75
2023/02/19 04:40:26;;;;;;;1.92;1.30;;;11.20;99.90;;;;;;5013501;28;20401;-75
2023/02/19 04:42:52;;;;;;;1.50;1.40;;;10.40;99.90;;;;;;5015350;28;20409;-74
2023/02/19 04:45:17;;;;;;;1.60;1.50;;;11.00;99.90;;;;;;5013573;28;20407;-75
2023/02/19 04:47:43;;;;;;;1.60;1.50;;;;;;;;;;5014271;28;20479;-75
2023/02/19 04:50:09;;;;;;;1.70;1.60;;;10.30;99.90;;;;;;5030030;28;20385;-74
2023/02/19 04:52:35;;;;;;;1.50;1.30;;;10.90;99.90;;;;;;5015155;28;20400;-75
2023/02/19 04:55:00;;;;;;;1.20;1.10;;;11.00;99.90;;;;;;5014428;28;20392;-74
2023/02/19 04:57:26;;;;;;;2.40;1.50;;;10.80;99.90;;;;;;5014414;28;20388;-75
2023/02/19 04:59:52;;;;;;;1.80;1.70;;;10.60;99.90;;;;;;5014484;28;20435;-75
2023/02/19 05:02:17;;;;;;;2.17;1.70;;;10.60;99.90;;;;;;5014082;28;20783;-75
2023/02/19 05:04:43;;;;;;;1.40;1.30;;;10.30;99.90;;;;;;5014004;28;20479;-75
2023/02/19 05:07:08;;;;;;;1.45;1.33;;;10.50;99.90;;;;;;5001944;28;20760;-74
2023/02/19 05:09:34;;;;;;;1.58;1.48;;;10.50;99.90;;;;;;5001736;28;20497;-75
2023/02/19 05:12:00;;;;;;;1.40;1.30;;;;;;;;;;5013900;28;20412;-74
2023/02/19 05:14:26;;;;;;;1.80;1.70;;;;;;;;;;5034966;23;20828;-84
2023/02/19 05:16:51;;;;;;;1.35;1.20;;;10.20;99.90;;;;;;5015390;28;20385;-83
2023/02/19 05:19:17;;;;;;;1.70;1.60;;;10.20;99.90;;;;;;5015514;28;20400;-82
2023/02/19 05:21:43;;;;;;;2.10;1.30;;;;;;;;;;5014392;28;20433;-84
2023/02/19 05:24:08;;;;;;;1.75;1.65;;;10.60;99.90;;;;;;5014211;28;20480;-82
2023/02/19 05:26:34;;;;;;;1.52;1.42;;;10.50;99.90;;;;;;5013420;28;20381;-82
2023/02/19 05:29:00;;;;;;;2.20;1.70;;;10.60;99.90;;;;;;5015489;28;20463;-83
2023/02/19 05:31:26;;;;;;;1.73;1.60;;;;;;;;;;5015832;28;20432;-83
2023/02/19 05:33:54;;;;;;;1.80;1.70;;;10.00;99.90;;;;;;5015120;28;20783;-83
2023/02/19 05:36:21;;;;;;;1.60;1.50;;;10.70;99.90;;;;;;5015054;28;20454;-83
2023/02/19 05:38:47;;;;;;;1.77;1.67;;;;;;;;;;5016291;28;20479;-83
2023/02/19 05:41:15;;;;;;;2.05;1.85;;;10.20;99.90;;;;;;5015598;28;20485;-83
2023/02/19 05:43:42;;;;;;;1.45;1.35;;;10.60;99.90;;;;;;5019515;28;20755;-81
2023/02/19 05:46:10;;;;;;;1.80;1.50;;;10.00;99.90;;;;;;5018054;28;20459;-82
2023/02/19 05:48:36;;;;;;;1.80;1.70;;;10.30;99.90;;;;;;5014511;28;20409;-82
2023/02/19 05:51:04;;;;;;;1.80;1.70;;;10.30;99.90;;;;;;5012865;28;20408;-82
2023/02/19 05:53:29;;;;;;;3.20;1.90;;;10.20;99.90;;;;;;5014205;28;20391;-82
2023/02/19 05:55:55;;;;;;;1.70;1.60;;;10.70;99.90;;;;;;5012973;28;20468;-82
2023/02/19 05:58:21;;;;;;;1.80;1.70;;;10.20;99.90;;;;;;5014421;28;20426;-81
2023/02/19 06:00:47;;;;;;;2.80;1.60;;;;;;;;;;5013656;28;20428;-81
2023/02/19 06:03:12;;;;;;;1.90;1.70;;;9.70;99.90;;;;;;5015154;28;20433;-82
2023/02/19 06:05:38;;;;;;;1.77;1.60;;;10.30;99.90;;;;;;5015445;28;20404;-82
2023/02/19 06:08:04;;;;;;;1.90;1.70;;;9.80;99.90;;;;;;5003471;28;20492;-82
2023/02/19 06:10:29;;;;;;;1.67;1.58;;;10.20;99.90;;;;;;5014572;28;20786;-81
2023/02/19 06:12:55;;;;;;;2.00;1.50;;;;;;;;;;5021047;28;20403;-81
2023/02/19 06:15:21;;;;;;;2.40;1.90;;;;;;;;;;5024418;28;20760;-82
2023/02/19 06:17:47;;;;;;;2.67;2.10;;;10.00;99.90;;;;;;5023419;28;20492;-81
2023/02/19 06:20:13;;;;;;;1.83;1.70;;;9.70;99.90;;;;;;5020343;28;20406;-81
2023/02/19 06:22:39;;;;;;;1.50;1.40;;;10.10;99.90;;;;;;5006080;28;20414;-81
2023/02/19 06:25:06;;;;;;;2.00;1.80;;;;;;;;;;5007434;28;20402;-82
2023/02/19 06:27:32;;;;;;;1.85;1.60;;;10.20;99.90;;;;;;5004542;28;20462;-82
2023/02/19 06:29:58;;;;;;;1.60;1.50;;;10.50;99.90;;;;;;5012735;28;20474;-81
2023/02/19 06:32:23;;;;;;;1.90;1.80;;;10.10;99.90;;;;;;5024556;28;20975;-81
2023/02/19 06:34:49;;;;;;;1.53;1.43;;;10.20;99.90;;;;;;5018017;28;21536;-82
2023/02/19 06:37:15;;;;;;;1.70;1.60;;;;;;;;;;4998885;28;20453;-83
2023/02/19 06:39:40;;;;;;;1.83;1.60;;;9.80;99.90;;;;;;5020604;28;20409;-80
2023/02/19 06:42:06;;;;;;;2.00;1.40;;;;;;;;;;5023898;28;20521;-83
2023/02/19 06:44:32;;;;;;;1.40;1.30;;;;;;;;;;5021530;28;20389;-82
2023/02/19 06:46:58;;;;;;;1.60;1.50;;;9.70;99.90;;;;;;5022550;28;20407;-81
2023/02/19 06:49:23;;;;;;;1.63;1.43;;;10.10;99.90;;;;;;5020088;28;20500;-81
2023/02/19 06:51:49;;;;;;;1.53;1.43;;;;;;;;;;5012983;28;20416;-83
2023/02/19 06:54:15;;;;;;;1.58;1.48;;;10.10;99.90;;;;;;5012257;28;20484;-83
2023/02/19 06:56:40;;;;;;;1.30;1.20;;;10.00;99.90;;;;;;5011831;28;20396;-82
2023/02/19 06:59:10;;;;;;;1.55;1.45;;;10.10;99.90;;;;;;5012346;28;20424;-81
2023/02/19 07:01:37;;;;;;;2.38;1.40;;;9.80;99.90;;;;;;5013302;28;20405;-81
2023/02/19 07:04:03;;;;;;;1.38;1.27;;;;;;;;;;5013332;28;20389;-82
2023/02/19 07:06:29;;;;;;;2.30;1.43;;;9.90;99.90;;;;;;5012062;28;20393;-82
2023/02/19 07:08:57;;;;;;;1.45;1.35;;;9.80;99.90;;;;;;5012276;28;20407;-83
2023/02/19 07:11:24;;;;;;;2.00;1.40;;;9.90;99.90;;;;;;5011711;28;20416;-82
2023/02/19 07:14:01;;;;;;;1.42;1.13;;;9.70;99.90;;;;;;5013683;28;20458;-81
2023/02/19 07:16:27;;;;;;;1.48;1.38;;;10.20;99.90;;;;;;5013844;28;20396;-81
2023/02/19 07:18:55;;;;;;;3.10;1.63;;;9.60;99.90;;;;;;5022689;28;20416;-81
2023/02/19 07:21:21;;;;;;;1.33;1.23;;;;;;;;;;5014908;28;20393;-83
2023/02/19 07:23:47;;;;;;;1.38;1.20;;;10.20;99.90;;;;;;5014862;28;20389;-84
2023/02/19 07:26:16;;;;;;;2.10;1.80;;;9.90;99.90;;;;;;5015787;28;20395;-82
2023/02/19 07:28:43;;;;;;;2.50;1.40;;;9.80;99.90;;;;;;5018068;28;20818;-83
2023/02/19 07:31:09;;;;;;;1.40;1.30;;;9.80;99.90;;;;;;5014387;28;20398;-84
2023/02/19 07:33:35;;;;;;;1.40;1.30;;;9.80;99.90;;;;;;5000770;28;20401;-82
2023/02/19 07:36:00;;;;;;;2.00;1.23;;;10.10;99.90;;;;;;4998860;28;20413;-84
2023/02/19 07:38:26;;;;;;;1.50;1.40;;;9.90;99.90;;;;;;4998240;28;20377;-83
2023/02/19 07:40:54;;;;;;;1.20;1.10;;;10.30;99.90;;;;;;5011058;28;20407;-82
2023/02/19 07:43:20;;;;;;;1.85;1.48;;;9.60;99.90;;;;;;5016317;28;20408;-82
2023/02/19 07:45:45;;;;;;;1.10;1.00;;;10.10;99.90;;;;;;5015292;28;20475;-82
2023/02/19 07:48:11;;;;;;;1.40;1.27;;;10.00;99.90;;;;;;5018350;28;20937;-83
2023/02/19 07:50:37;;;;;;;1.80;1.50;;;10.20;99.90;;;;;;5016461;28;20791;-83
2023/02/19 07:53:02;;;;;;;1.70;1.60;;;10.20;99.90;;;;;;5015739;28;20439;-83
2023/02/19 07:55:28;;;;;;;1.60;1.50;;;9.90;99.90;;;;;;5024386;28;20435;-80
2023/02/19 07:57:53;;;;;;;1.50;1.40;;;9.70;99.90;;;;;;5029411;28;20419;-82
2023/02/19 08:00:19;;;;;;;1.85;1.63;;;;;;;;;;5029198;28;20770;-81
2023/02/19 08:03:01;;;;;;;1.50;1.40;;;10.00;99.90;;;;;;5015636;28;20415;-83
2023/02/19 08:05:31;;;;;;;1.40;1.30;;;10.10;99.90;;;;;;5015891;28;20424;-82
2023/02/19 08:07:58;;;;;;;1.40;1.30;;;10.00;99.90;;;;;;5018004;28;20420;-83
2023/02/19 08:13:21;;;;;;;1.60;1.40;;;10.00;99.90;;;;;;5031146;28;20812;-81
2023/02/19 08:15:47;;;;;;;3.47;2.00;;;10.10;99.90;;;;;;5030635;28;20408;-81
2023/02/19 08:18:13;;;;;;;2.50;1.90;;;10.30;99.90;;;;;;5029463;28;20409;-80
2023/02/19 08:20:39;;;;;;;2.60;1.70;;;;;;;;;;5028813;28;20428;-82
2023/02/19 08:23:05;;;;;;;2.20;1.90;;;10.20;99.90;;;;;;5023021;28;20466;-83
2023/02/19 08:25:31;;;;;;;2.13;1.70;;;;;;;;;;5018052;28;20389;-83
2023/02/19 08:27:59;;;;;;;1.70;1.60;;;9.80;99.90;;;;;;5018414;28;20948;-82
2023/02/19 08:30:25;;;;;;;1.60;1.40;;;;;;;;;;5018085;28;20381;-83
2023/02/19 08:32:50;;;;;;;1.80;1.70;;;9.20;99.90;;;;;;5017573;28;20392;-82
2023/02/19 08:35:16;;;;;;;1.67;1.58;;;9.80;99.90;;;;;;5014932;28;20409;-82
2023/02/19 08:37:42;;;;;;;1.70;1.60;;;;;;;;;;5012234;28;20409;-82
2023/02/19 08:40:08;;;;;;;1.77;1.65;;;10.10;99.90;;;;;;4997348;28;20465;-82
2023/02/19 08:42:33;;;;;;;2.65;2.15;;;9.60;99.90;;;;;;4996650;28;20481;-82
2023/02/19 08:44:59;;;;;;;2.70;2.10;;;10.00;99.90;;;;;;4994201;28;20787;-82
2023/02/19 08:47:24;;;;;;;1.73;1.63;;;9.60;99.90;;;;;;5006655;28;20429;-82
2023/02/19 08:49:50;;;;;;;2.20;1.40;;;9.70;99.90;;;;;;5014199;28;20996;-83
2023/02/19 08:52:15;;;;;;;2.13;1.40;;;10.20;99.90;;;;;;5014571;28;20397;-83
2023/02/19 08:54:41;;;;;;;1.70;1.37;;;10.10;99.90;;;;;;5015143;28;20434;-83
2023/02/19 08:57:06;;;;;;;1.83;1.60;;;10.60;99.90;;;;;;5013531;28;20388;-82
2023/02/19 08:59:32;;;;;;;1.38;1.10;;;10.60;99.90;;;;;;5008753;28;20389;-83
2023/02/19 09:01:58;;;;;;;1.30;1.20;;;10.60;99.90;;;;;;5015237;28;20426;-82
2023/02/19 09:04:23;;;;;;;1.50;1.40;;;12.10;99.90;;;;;;5014329;28;20407;-82
2023/02/19 09:06:49;;;;;;;1.40;1.03;;;;;;;;;;5004564;28;20453;-82
2023/02/19 09:09:15;;;;;;;1.30;1.10;;;10.20;99.90;;;;;;4994845;28;20401;-82
2023/02/19 09:11:40;;;;;;;1.48;1.10;;;10.20;99.90;;;;;;4997696;28;20793;-82
2023/02/19 09:14:06;;;;;;;1.80;1.20;;;10.90;99.90;;;;;;5016133;28;20408;-82
2023/02/19 09:16:35;;;;;;;1.30;1.00;;;10.70;99.90;;;;;;5016837;28;20388;-82
2023/02/19 09:19:01;;;;;;;1.90;1.10;;;;;;;;;;5007386;28;20398;-82
2023/02/19 09:21:27;;;;;;;1.00;0.70;;;10.70;99.90;;;;;;5014774;28;20415;-81
2023/02/19 09:23:52;;;;;;;1.00;0.90;;;10.20;99.90;;;;;;5016013;28;20396;-82
2023/02/19 09:26:18;;;;;;;1.10;1.00;;;;;;;;;;5015631;28;20381;-82
2023/02/19 09:28:44;;;;;;;1.00;0.90;;;10.70;99.90;;;;;;4995510;28;20387;-83
2023/02/19 09:31:14;;;;;;;0.80;0.70;;;10.50;99.90;;;;;;4995508;28;20393;-82
2023/02/19 09:33:44;;;;;;;1.20;1.00;;;10.10;99.90;;;;;;4995320;28;20394;-82
2023/02/19 09:36:10;;;;;;;1.07;0.90;;;10.60;99.90;;;;;;4993963;28;20760;-81
2023/02/19 09:38:36;;;;;;;1.30;1.05;;;;;;;;;;5010126;28;20391;-81
2023/02/19 09:41:20;;;;;;;1.10;1.00;;;;;;;;;;4994170;28;20386;-82
2023/02/19 09:43:46;;;;;;;1.10;1.00;;;;;;;;;;5006373;28;20435;-83
2023/02/19 09:46:54;;;;;;;1.30;0.80;;;10.50;99.90;;;;;;5006920;28;20385;-81
2023/02/19 09:49:34;;;;;;;1.10;1.00;;;;;;;;;;5018264;28;20392;-81
2023/02/19 09:52:25;;;;;;;0.95;0.70;;;10.80;99.90;;;;;;5028179;28;20873;-81
2023/02/19 09:54:56;;;;;;;0.80;0.80;;;;;;;;;;5013257;28;20501;-83
2023/02/19 09:57:22;;;;;;;0.80;0.70;;;;;;;;;;5014071;28;20389;-82
2023/02/19 09:59:52;;;;;;;0.60;0.60;;;11.30;99.90;;;;;;5015196;28;20399;-81
2023/02/19 10:02:24;;;;;;;0.70;0.70;;;11.50;99.90;;;;;;5015473;28;20846;-84
2023/02/19 10:04:51;;;;;;;0.70;0.68;;;11.40;99.90;;;;;;5015686;28;20393;-82
2023/02/19 10:07:20;;;;;;;2.10;0.90;;;10.90;99.90;;;;;;5014472;28;20392;-81
2023/02/19 10:09:56;;;;;;;0.50;0.50;;;10.90;99.90;;;;;;5014402;28;20441;-82
2023/02/19 10:12:30;;;;;;;0.83;0.60;;;11.60;99.90;;;;;;5014219;28;20392;-82
2023/02/19 10:15:10;;;;;;;0.60;0.50;;;11.50;99.90;;;;;;5013654;28;20415;-82
2023/02/19 10:17:36;;;;;;;0.60;0.50;;;11.30;99.90;;;;;;5013953;28;20979;-82
2023/02/19 10:20:03;;;;;;;0.80;0.60;;;11.80;99.90;;;;;;5015583;28;20415;-82
2023/02/19 10:22:34;;;;;;;0.57;0.55;;;11.40;99.90;;;;;;5015236;28;20475;-82
2023/02/19 10:25:00;;;;;;;0.80;0.70;;;12.00;99.90;;;;;;5013679;28;20389;-82
2023/02/19 10:27:30;;;;;;;0.77;0.50;;;11.70;99.90;;;;;;5014040;28;20395;-83
2023/02/19 10:29:56;;;;;;;3.92;0.63;;;;;;;;;;5014710;28;20388;-83
2023/02/19 10:32:24;;;;;;;0.50;0.40;;;;;;;;;;5016372;28;20397;-83
2023/02/19 10:35:08;;;;;;;0.68;0.50;;;;;;;;;;5021043;28;20395;-81
2023/02/19 10:37:35;;;;;;;0.60;0.50;;;11.90;99.90;;;;;;5024888;28;20393;-81
2023/02/19 10:40:01;;;;;;;1.20;0.50;;;12.10;99.90;;;;;;5017114;28;20413;-82
2023/02/19 10:42:27;;;;;;;0.90;0.50;;;;;;;;;;5001219;28;20458;-84
2023/02/19 10:45:00;;;;;;;0.52;0.40;;;11.80;99.90;;;;;;5006953;28;20997;-81
2023/02/19 10:47:29;;;;;;;0.73;0.35;;;11.50;99.90;;;;;;5022341;28;20401;-81
2023/02/19 10:49:59;;;;;;;0.50;0.40;;;12.20;99.90;;;;;;5016713;28;20377;-82
2023/02/19 10:52:31;;;;;;;0.70;0.60;;;12.50;99.90;;;;;;5015448;28;20883;-83
2023/02/19 10:55:23;;;;;;;1.20;0.40;;;12.10;99.90;;;;;;5011479;28;20403;-83
2023/02/19 10:57:49;;;;;;;0.90;0.40;;;11.70;99.90;;;;;;5013829;28;20401;-82
2023/02/19 11:00:14;;;;;;;0.90;0.70;;;12.40;99.90;;;;;;5013130;28;20387;-82
2023/02/19 11:02:43;;;;;;;1.50;0.60;;;12.30;99.90;;;;;;5013529;28;20408;-82
2023/02/19 11:05:15;;;;;;;0.77;0.68;;;;;;;;;;5011270;28;20950;-82
2023/02/19 11:07:56;;;;;;;0.80;0.50;;;12.00;99.90;;;;;;4996765;28;20386;-82
2023/02/19 11:10:37;;;;;;;1.00;0.57;;;12.10;99.90;;;;;;4998160;28;21025;-82
2023/02/19 11:13:05;;;;;;;0.50;0.50;;;12.20;99.90;;;;;;5014434;28;20479;-82
2023/02/19 11:15:34;;;;;;;1.80;0.68;;;11.90;99.90;;;;;;5037932;23;20443;-75
2023/02/19 11:18:11;;;;;;;0.90;0.50;;;12.30;99.90;;;;;;5016300;28;20380;-75
2023/02/19 11:20:38;;;;;;;1.40;0.60;;;11.80;95.80;;;;;;5016387;28;20377;-75
2023/02/19 11:23:15;;;;;;;1.00;0.70;;;12.10;99.90;;;;;;5015608;28;20459;-75
2023/02/19 11:25:45;;;;;;;0.90;0.80;;;12.20;99.90;;;;;;5016198;28;20420;-75
2023/02/19 11:28:24;;;;;;;0.90;0.73;;;12.10;99.90;;;;;;5015773;28;20956;-74
2023/02/19 11:30:49;;;;;;;1.08;0.73;;;12.10;99.90;;;;;;5016029;28;20410;-75
2023/02/19 11:33:15;;;;;;;1.40;1.00;;;11.50;99.90;;;;;;5016442;28;20397;-75
2023/02/19 11:35:45;;;;;;;0.90;0.70;;;11.80;99.90;;;;;;5015799;28;20400;-75
2023/02/19 11:38:14;;;;;;;0.70;0.60;;;12.00;99.90;;;;;;5016020;28;20416;-75
2023/02/19 11:41:18;;;;;;;0.90;0.80;;;12.00;99.90;;;;;;5016021;28;20401;-75
2023/02/19 11:43:54;;;;;;;1.00;0.90;;;12.10;99.90;;;;;;4996211;28;20398;-75
2023/02/19 11:46:41;;;;;;;1.58;1.10;;;;;;;;;;4995604;28;20379;-75
2023/02/19 11:49:30;;;;;;;1.83;1.20;;;12.10;99.90;;;;;;4995924;28;20876;-75
2023/02/19 11:52:21;;;;;;;2.10;1.30;;;11.40;99.90;;;;;;5002861;28;20450;-75
2023/02/19 11:54:50;;;;;;;1.80;1.35;;;;;;;;;;5017899;28;20401;-75
2023/02/19 11:57:35;;;;;;;1.40;1.20;;;;;;;;;;5013452;28;20405;-74
2023/02/19 12:00:14;;;;;;;1.30;1.20;;;11.30;99.90;;;;;;5014724;28;20822;-75
2023/02/19 12:02:56;;;;;;;2.00;1.50;;;11.80;99.90;;;;;;5017813;28;20427;-75
2023/02/19 12:05:33;;;;;;;1.45;1.35;;;12.00;99.90;;;;;;5014833;28;20775;-75
2023/02/19 12:08:05;;;;;;;1.50;1.35;;;12.10;99.90;;;;;;5008135;28;20383;-75
2023/02/19 12:10:59;;;;;;;1.88;1.40;;;12.20;99.90;;;;;;5011932;28;20397;-75
2023/02/19 12:13:39;;;;;;;1.80;1.10;;;11.90;99.90;;;;;;5006610;28;20403;-75
2023/02/19 12:16:22;;;;;;;1.20;1.10;;;11.80;97.50;;;;;;4996399;28;20485;-76
2023/02/19 12:19:16;;;;;;;2.38;1.13;;;12.30;87.90;;;;;;4999031;28;20488;-75
2023/02/19 12:21:57;;;;;;;2.08;1.10;;;12.40;91.30;;;;;;5013135;28;20404;-74
2023/02/19 12:24:56;;;;;;;1.20;1.00;;;12.40;91.60;;;;;;5011665;28;20459;-75
2023/02/19 12:27:45;;;;;;;1.00;0.77;;;12.10;87.90;;;;;;5012407;28;20399;-74
2023/02/19 12:30:16;;;;;;;1.00;0.90;;;;;;;;;;5011357;28;20401;-75
2023/02/19 12:32:59;;;;;;;2.10;1.00;;;12.70;81.90;;;;;;5006539;28;20760;-75
2023/02/19 12:35:50;;;;;;;2.67;1.08;;;11.90;84.70;;;;;;5002041;28;20388;-75
2023/02/19 12:38:45;;;;;;;1.00;0.80;;;12.00;89.90;;;;;;5005889;28;20393;-75
2023/02/19 12:41:38;;;;;;;0.85;0.77;;;11.90;84.30;;;;;;5004154;28;20393;-74
2023/02/19 12:44:18;;;;;;;2.15;1.30;;;12.50;85.10;;;;;;5012879;28;20435;-74
2023/02/19 12:46:49;;;;;;;1.70;1.00;;;;;;;;;;4999572;28;20404;-74
2023/02/19 12:49:38;;;;;;;1.40;1.13;;;12.40;90.10;;;;;;5013671;28;20389;-74
2023/02/19 12:52:14;;;;;;;1.33;0.88;;;12.30;90.20;;;;;;5011575;28;20721;-75
2023/02/19 12:54:42;;;;;;;1.30;0.93;;;;;;;;;;5012321;28;20823;-76
2023/02/19 12:57:23;;;;;;;1.10;1.00;;;;;;;;;;5003464;28;20391;-74
2023/02/19 12:59:49;;;;;;;2.63;1.20;;;;;;;;;;4993149;28;20474;-73
2023/02/19 13:02:37;;;;;;;1.60;1.30;;;;;;;;;;5012662;28;20512;-74
2023/02/19 13:05:19;;;;;;;1.60;0.90;;;12.10;88.20;;;;;;5011171;28;20405;-74
2023/02/19 13:07:57;;;;;;;1.05;0.90;;;12.40;87.70;;;;;;5009501;28;20397;-74
2023/02/19 13:10:28;;;;;;;1.40;0.80;;;12.00;88.10;;;;;;5009936;28;20412;-73
2023/02/19 13:12:55;;;;;;;0.80;0.70;;;;;;;;;;5007142;28;20384;-75
2023/02/19 13:15:35;;;;;;;1.38;1.00;;;13.40;81.10;;;;;;5009882;28;20423;-74
2023/02/19 13:18:03;;;;;;;1.60;1.50;;;;;;;;;;5005215;28;20846;-75
2023/02/19 13:20:35;;;;;;;2.47;1.10;;;14.40;64.90;;;;;;5008723;28;20460;-75
2023/02/19 13:26:19;;;;;;;1.95;0.95;;;14.20;63.90;;;;;;5016028;28;20380;-74
2023/02/19 13:28:58;;;;;;;1.60;0.90;;;;;;;;;;5014172;28;20759;-75
2023/02/19 13:31:39;;;;;;;1.23;1.10;;;;;;;;;;5013462;28;20890;-75
2023/02/19 13:34:31;;;;;;;1.77;1.00;;;13.20;77.70;;;;;;5012246;28;20799;-75
2023/02/19 13:36:58;;;;;;;1.60;0.97;;;;;;;;;;5012696;28;20500;-74
2023/02/19 13:39:24;;;;;;;1.42;0.80;;;;;;;;;;5013056;28;20404;-74
2023/02/19 13:41:54;;;;;;;1.83;0.90;;;12.60;81.60;;;;;;5013542;28;20414;-74
2023/02/19 13:44:24;;;;;;;2.00;1.10;;;12.40;80.50;;;;;;5013584;28;20887;-75
2023/02/19 13:46:50;;;;;;;1.67;0.90;;;12.50;74.00;;;;;;5013489;28;20401;-75
2023/02/19 13:49:28;;;;;;;1.00;0.80;;;;;;;;;;5014347;28;20409;-75